Terminal Aerodrome Forecast
Issued by NWS

Home | Current Version | Previous Version | Text Only | Print | Product List | Glossary On
Versions: 1 2 3 4 5 6 7 8 9 10 11 12 13 14 15
220
FTUS43 KOAX 252320
TAFBFF
TAF
KBFF 252320Z 2600/2624 27015G23KT P6SM FEW250
     FM260200 27009KT P6SM FEW250 WS020/28040KT
     FM261200 12009KT P6SM BKN250
     FM262200 18009KT P6SM BKN200=

USA.gov is the U.S. government's official web portal to all federal, state and local government web resources and services.